createdAt,value
2022-10-05T00:00:59.191Z,100.00
2022-10-05T00:03:29.156Z,100.00
2022-10-05T00:05:56.965Z,100.00
2022-10-05T00:08:26.766Z,89.73
2022-10-05T00:10:54.670Z,99.90
2022-10-05T00:13:24.748Z,97.26
2022-10-05T00:15:54.341Z,80.51
2022-10-05T00:18:23.564Z,77.75
2022-10-05T00:20:51.405Z,82.18
2022-10-05T00:23:21.373Z,87.59
2022-10-05T00:25:49.134Z,100.00
2022-10-05T00:28:19.308Z,100.00
2022-10-05T00:30:47.237Z,100.00
2022-10-05T00:33:14.946Z,100.00
2022-10-05T00:35:44.033Z,96.15
2022-10-05T00:38:11.778Z,93.87
2022-10-05T00:40:54.911Z,89.57
2022-10-05T00:43:35.022Z,92.29
2022-10-05T00:46:07.857Z,86.73
2022-10-05T00:48:40.997Z,91.50
2022-10-05T00:51:18.353Z,89.21
2022-10-05T00:53:50.144Z,91.56
2022-10-05T00:56:37.192Z,92.53
2022-10-05T00:59:10.460Z,100.00
2022-10-05T01:01:43.784Z,94.06
2022-10-05T01:04:17.979Z,100.00
2022-10-05T01:06:55.957Z,100.00
2022-10-05T01:09:28.501Z,100.00
2022-10-05T01:12:01.078Z,100.00
2022-10-05T01:14:33.651Z,100.00
2022-10-05T01:17:05.823Z,100.00
2022-10-05T01:19:53.003Z,100.00
2022-10-05T01:22:33.180Z,100.00
2022-10-05T01:25:13.029Z,97.59
2022-10-05T01:27:52.166Z,100.00
2022-10-05T01:30:21.138Z,100.00
2022-10-05T01:32:52.353Z,100.00
2022-10-05T01:35:28.074Z,100.00
2022-10-05T01:38:03.369Z,100.00
2022-10-05T01:40:37.876Z,100.00
2022-10-05T01:43:12.544Z,100.00
2022-10-05T01:45:48.049Z,100.00
2022-10-05T01:48:20.930Z,100.00
2022-10-05T01:50:56.274Z,100.00
2022-10-05T01:53:31.776Z,96.19
2022-10-05T01:56:03.849Z,83.70
2022-10-05T01:58:37.354Z,100.00
2022-10-05T02:01:09.195Z,100.00
2022-10-05T02:03:39.676Z,98.20
2022-10-05T02:06:11.501Z,100.00
2022-10-05T02:08:43.243Z,92.13
2022-10-05T02:11:13.205Z,91.15
2022-10-05T02:13:45.446Z,95.09
2022-10-05T02:16:17.688Z,91.97
2022-10-05T02:18:51.039Z,95.85
2022-10-05T02:21:19.930Z,81.95
2022-10-05T02:23:49.471Z,80.42
2022-10-05T02:26:17.863Z,98.25
2022-10-05T02:28:50.625Z,100.00
2022-10-05T02:31:22.492Z,100.00
2022-10-05T02:33:50.399Z,88.08
2022-10-05T02:36:25.190Z,92.17
2022-10-05T02:39:00.329Z,98.59
2022-10-05T02:41:38.653Z,98.41
2022-10-05T02:44:15.090Z,100.00
2022-10-05T02:46:46.644Z,92.65
2022-10-05T02:49:23.880Z,92.80
2022-10-05T02:51:57.837Z,93.00
2022-10-05T02:54:39.380Z,91.40
2022-10-05T02:57:11.676Z,100.00
2022-10-05T02:59:45.259Z,100.00
2022-10-05T03:02:16.888Z,89.77
2022-10-05T03:04:51.610Z,94.40
2022-10-05T03:07:24.744Z,85.91
2022-10-05T03:10:01.106Z,82.37
2022-10-05T03:12:49.711Z,88.61
2022-10-05T03:15:46.130Z,100.00
2022-10-05T03:18:21.801Z,97.33
2022-10-05T03:20:54.116Z,88.61
2022-10-05T03:23:33.929Z,94.55
2022-10-05T03:26:26.065Z,100.00
2022-10-05T03:28:59.146Z,100.00
2022-10-05T03:31:33.316Z,100.00
2022-10-05T03:34:04.484Z,100.00
2022-10-05T03:36:39.648Z,100.00
2022-10-05T03:39:11.621Z,100.00
2022-10-05T03:41:43.169Z,100.00
2022-10-05T03:44:32.873Z,100.00
2022-10-05T03:47:09.122Z,100.00
2022-10-05T03:49:51.232Z,100.00
2022-10-05T03:52:23.182Z,100.00
2022-10-05T03:54:55.771Z,100.00
2022-10-05T03:57:25.714Z,100.00
2022-10-05T04:00:00.000Z,100.00
2022-10-05T04:02:35.931Z,100.00
2022-10-05T04:05:12.561Z,100.00
2022-10-05T04:07:44.443Z,100.00
2022-10-05T04:10:17.784Z,100.00
2022-10-05T04:12:50.361Z,100.00
2022-10-05T04:15:25.168Z,100.00
2022-10-05T04:17:58.669Z,100.00
2022-10-05T04:20:31.346Z,100.00
2022-10-05T04:23:04.542Z,100.00
2022-10-05T04:25:36.834Z,100.00
2022-10-05T04:28:08.948Z,100.00
2022-10-05T04:30:40.065Z,100.00
2022-10-05T04:33:12.532Z,100.00
2022-10-05T04:35:57.332Z,100.00
2022-10-05T04:38:48.505Z,100.00
2022-10-05T04:41:26.494Z,100.00
2022-10-05T04:44:06.026Z,100.00
2022-10-05T04:46:42.052Z,100.00
2022-10-05T04:49:33.439Z,100.00
2022-10-05T04:52:07.156Z,100.00
2022-10-05T04:54:45.576Z,100.00
2022-10-05T04:57:15.152Z,92.06
2022-10-05T05:00:09.266Z,96.42
2022-10-05T05:02:53.655Z,100.00
2022-10-05T05:05:31.603Z,100.00
2022-10-05T05:08:11.542Z,100.00
2022-10-05T05:10:54.519Z,100.00
2022-10-05T05:13:45.931Z,100.00
2022-10-05T05:16:21.301Z,100.00
2022-10-05T05:18:59.737Z,100.00
2022-10-05T05:21:35.619Z,100.00
2022-10-05T05:24:10.989Z,100.00
2022-10-05T05:26:59.746Z,100.00
2022-10-05T05:29:38.312Z,100.00
2022-10-05T05:32:09.774Z,100.00
2022-10-05T05:34:46.468Z,100.00
2022-10-05T05:37:20.553Z,100.00
2022-10-05T05:39:53.104Z,100.00
2022-10-05T05:42:32.972Z,100.00
2022-10-05T05:45:08.721Z,98.02
2022-10-05T05:47:38.269Z,97.64
2022-10-05T05:50:20.412Z,99.32
2022-10-05T05:52:54.992Z,100.00
2022-10-05T05:55:30.111Z,100.00
2022-10-05T05:58:04.649Z,100.00
2022-10-05T06:00:37.038Z,100.00
2022-10-05T06:03:12.296Z,100.00
2022-10-05T06:05:43.295Z,100.00
2022-10-05T06:08:17.977Z,100.00
2022-10-05T06:10:52.795Z,100.00
2022-10-05T06:13:24.330Z,100.00
2022-10-05T06:15:55.853Z,98.10
2022-10-05T06:18:24.752Z,92.07
2022-10-05T06:20:58.578Z,90.83
2022-10-05T06:23:31.540Z,90.08
2022-10-05T06:26:13.869Z,100.00
2022-10-05T06:28:43.821Z,93.21
2022-10-05T06:31:19.546Z,94.88
2022-10-05T06:33:53.077Z,100.00
2022-10-05T06:36:39.097Z,74.56
2022-10-05T06:39:22.629Z,75.03
2022-10-05T06:42:02.320Z,68.21
2022-10-05T06:44:55.018Z,79.16
2022-10-05T06:47:50.031Z,80.61
2022-10-05T06:50:44.102Z,74.91
2022-10-05T06:53:37.189Z,78.16
2022-10-05T06:56:10.674Z,78.94
2022-10-05T06:58:46.853Z,86.10
2022-10-05T07:01:20.083Z,74.19
2022-10-05T07:04:02.428Z,94.75
2022-10-05T07:06:35.365Z,100.00
2022-10-05T07:09:14.249Z,92.24
2022-10-05T07:12:03.758Z,84.69
2022-10-05T07:14:47.538Z,82.05
2022-10-05T07:17:26.697Z,81.70
2022-10-05T07:20:01.761Z,80.72
2022-10-05T07:23:02.022Z,66.78
2022-10-05T07:25:33.134Z,73.37
2022-10-05T07:28:07.871Z,69.10
2022-10-05T07:30:42.467Z,96.26
2022-10-05T07:33:14.845Z,100.00
2022-10-05T07:36:06.310Z,90.87
2022-10-05T07:38:38.498Z,82.84
2022-10-05T07:41:09.274Z,85.01
2022-10-05T07:44:01.405Z,85.29
2022-10-05T07:46:41.029Z,80.38
2022-10-05T07:49:16.536Z,66.89
2022-10-05T07:51:47.066Z,65.13
2022-10-05T07:54:18.451Z,56.42
2022-10-05T07:56:48.241Z,56.64
2022-10-05T07:59:26.250Z,59.63
2022-10-05T08:01:59.871Z,55.62
2022-10-05T08:04:30.302Z,56.85
2022-10-05T08:07:00.407Z,65.66
2022-10-05T08:09:34.799Z,66.17
2022-10-05T08:12:13.059Z,62.68
2022-10-05T08:14:49.130Z,55.97
2022-10-05T08:17:38.293Z,54.21
2022-10-05T08:20:17.200Z,56.38
2022-10-05T08:22:48.302Z,58.09
2022-10-05T08:25:22.209Z,61.83
2022-10-05T08:27:53.631Z,58.83
2022-10-05T08:30:22.845Z,54.93
2022-10-05T08:32:55.191Z,58.84
2022-10-05T08:35:29.812Z,55.07
2022-10-05T08:37:58.125Z,56.58
2022-10-05T08:40:54.271Z,54.08
2022-10-05T08:43:35.548Z,55.43
2022-10-05T08:46:33.987Z,52.56
2022-10-05T08:49:16.871Z,55.74
2022-10-05T08:52:00.136Z,59.03
2022-10-05T08:54:44.629Z,53.06
2022-10-05T08:57:46.565Z,54.64
2022-10-05T09:00:16.723Z,51.41
2022-10-05T09:03:09.086Z,52.35
2022-10-05T09:06:00.515Z,56.27
2022-10-05T09:08:40.752Z,54.42
2022-10-05T09:11:12.910Z,53.52
2022-10-05T09:13:54.437Z,53.22
2022-10-05T09:16:44.246Z,54.63
2022-10-05T09:19:53.507Z,48.86
2022-10-05T09:22:55.763Z,46.85
2022-10-05T09:25:24.919Z,50.31
2022-10-05T09:27:56.308Z,56.64
2022-10-05T09:30:35.149Z,57.53
2022-10-05T09:33:33.137Z,56.60
2022-10-05T09:36:43.479Z,51.53
2022-10-05T09:39:36.670Z,47.88
2022-10-05T09:42:47.084Z,43.14
2022-10-05T09:46:02.656Z,43.96
2022-10-05T09:49:08.485Z,47.42
2022-10-05T09:52:17.901Z,46.74
2022-10-05T09:55:25.606Z,48.99
2022-10-05T09:58:28.296Z,49.37
2022-10-05T10:01:09.716Z,47.76
2022-10-05T10:04:10.174Z,48.47
2022-10-05T10:07:04.983Z,46.62
2022-10-05T10:09:38.810Z,48.89
2022-10-05T10:12:26.361Z,47.63
2022-10-05T10:15:31.209Z,46.12
2022-10-05T10:18:12.591Z,45.51
2022-10-05T10:20:56.264Z,48.30
2022-10-05T10:23:41.589Z,54.52
2022-10-05T10:26:40.679Z,48.95
2022-10-05T10:29:21.132Z,55.62
2022-10-05T10:31:56.354Z,54.35
2022-10-05T10:34:37.596Z,57.56
2022-10-05T10:37:33.540Z,48.64
2022-10-05T10:40:26.038Z,45.27
2022-10-05T10:43:12.654Z,45.78
2022-10-05T10:45:49.140Z,48.06
2022-10-05T10:48:50.087Z,48.40
2022-10-05T10:51:30.385Z,46.89
2022-10-05T10:54:20.034Z,48.09
2022-10-05T10:57:06.414Z,50.47
2022-10-05T11:00:06.664Z,47.95
2022-10-05T11:02:49.862Z,45.92
2022-10-05T11:05:43.960Z,45.53
2022-10-05T11:08:52.275Z,45.31
2022-10-05T11:11:38.662Z,50.24
2022-10-05T11:14:27.930Z,49.92
2022-10-05T11:17:34.174Z,48.60
2022-10-05T11:20:26.490Z,47.35
2022-10-05T11:23:04.345Z,50.84
2022-10-05T11:25:48.124Z,48.92
2022-10-05T11:28:42.064Z,56.10
2022-10-05T11:31:50.883Z,59.10
2022-10-05T11:34:36.945Z,49.42
2022-10-05T11:37:21.326Z,49.18
2022-10-05T11:40:33.278Z,48.31
2022-10-05T11:43:29.509Z,47.93
2022-10-05T11:46:02.213Z,43.59
2022-10-05T11:48:37.806Z,42.31
2022-10-05T11:51:27.775Z,40.63
2022-10-05T11:54:05.001Z,41.39
2022-10-05T11:56:37.162Z,42.53
2022-10-05T11:59:13.085Z,41.99
2022-10-05T12:01:47.421Z,45.00
2022-10-05T12:04:19.889Z,44.09
2022-10-05T12:07:01.072Z,46.37
2022-10-05T12:09:38.389Z,45.85
2022-10-05T12:12:12.289Z,42.31
2022-10-05T12:14:49.019Z,36.82
2022-10-05T12:17:23.534Z,36.40
2022-10-05T12:19:55.557Z,42.04
2022-10-05T12:22:26.098Z,40.83
2022-10-05T12:25:07.773Z,39.47
2022-10-05T12:27:39.441Z,34.11
2022-10-05T12:30:15.666Z,35.52
2022-10-05T12:32:51.039Z,31.88
2022-10-05T12:35:43.809Z,32.51
2022-10-05T12:38:22.990Z,30.26
2022-10-05T12:40:54.449Z,34.85
2022-10-05T12:43:26.538Z,33.28
2022-10-05T12:46:01.873Z,31.21
2022-10-05T12:48:42.218Z,30.99
2022-10-05T12:51:18.175Z,29.76
2022-10-05T12:53:52.525Z,29.39
2022-10-05T12:56:29.640Z,29.25
2022-10-05T12:59:01.877Z,29.48
2022-10-05T13:01:38.361Z,29.98
2022-10-05T13:04:23.152Z,29.87
2022-10-05T13:07:06.503Z,29.81
2022-10-05T13:09:39.188Z,33.05
2022-10-05T13:12:13.800Z,33.83
2022-10-05T13:14:55.334Z,35.10
2022-10-05T13:17:33.789Z,36.20
2022-10-05T13:20:08.155Z,35.16
2022-10-05T13:22:41.091Z,35.84
2022-10-05T13:25:19.640Z,35.51
2022-10-05T13:27:52.724Z,33.21
2022-10-05T13:30:21.761Z,32.97
2022-10-05T13:32:57.111Z,33.07
2022-10-05T13:35:35.229Z,32.31
2022-10-05T13:38:11.693Z,31.20
2022-10-05T13:40:43.285Z,33.20
2022-10-05T13:43:18.377Z,33.39
2022-10-05T13:45:52.811Z,31.88
2022-10-05T13:48:42.170Z,31.55
2022-10-05T13:51:14.920Z,29.27
2022-10-05T13:53:46.610Z,32.08
2022-10-05T13:56:18.686Z,32.09
2022-10-05T13:58:49.969Z,32.41
2022-10-05T14:01:22.286Z,32.54
2022-10-05T14:04:17.168Z,32.61
2022-10-05T14:06:45.470Z,33.26
2022-10-05T14:09:29.148Z,32.43
2022-10-05T14:12:13.084Z,32.00
2022-10-05T14:14:47.799Z,31.58
2022-10-05T14:17:17.481Z,30.10
2022-10-05T14:19:51.135Z,32.51
2022-10-05T14:22:23.209Z,34.37
2022-10-05T14:24:53.696Z,32.15
2022-10-05T14:27:24.699Z,31.30
2022-10-05T14:29:58.116Z,31.01
2022-10-05T14:32:27.114Z,33.49
2022-10-05T14:35:12.846Z,34.57
2022-10-05T14:37:47.287Z,31.33
2022-10-05T14:40:28.133Z,30.92
2022-10-05T14:42:56.153Z,29.67
2022-10-05T14:45:26.112Z,28.33
2022-10-05T14:47:56.151Z,32.76
2022-10-05T14:50:33.347Z,29.17
2022-10-05T14:53:10.753Z,27.31
2022-10-05T14:55:56.503Z,29.81
2022-10-05T14:58:36.098Z,32.63
2022-10-05T15:01:13.696Z,35.17
2022-10-05T15:03:48.549Z,35.07
2022-10-05T15:06:22.969Z,33.52
2022-10-05T15:09:00.776Z,29.41
2022-10-05T15:11:37.310Z,29.21
2022-10-05T15:14:08.489Z,30.39
2022-10-05T15:16:39.002Z,31.80
2022-10-05T15:19:16.001Z,31.99
2022-10-05T15:21:56.957Z,32.99
2022-10-05T15:24:27.077Z,34.30
2022-10-05T15:26:56.073Z,33.89
2022-10-05T15:29:38.022Z,32.81
2022-10-05T15:32:14.818Z,33.51
2022-10-05T15:34:49.018Z,36.22
2022-10-05T15:37:20.926Z,34.19
2022-10-05T15:39:53.580Z,32.08
2022-10-05T15:42:24.383Z,33.01
2022-10-05T15:45:02.180Z,33.40
2022-10-05T15:47:47.910Z,32.72
2022-10-05T15:50:21.682Z,32.07
2022-10-05T15:52:54.069Z,34.20
2022-10-05T15:55:26.438Z,33.73
2022-10-05T15:58:15.812Z,31.64
2022-10-05T16:00:47.366Z,32.68
2022-10-05T16:03:19.391Z,30.57
2022-10-05T16:06:08.136Z,33.20
2022-10-05T16:08:58.453Z,34.81
2022-10-05T16:11:33.950Z,38.47
2022-10-05T16:14:11.118Z,36.75
2022-10-05T16:16:48.270Z,38.00
2022-10-05T16:19:20.794Z,39.60
2022-10-05T16:21:54.373Z,39.65
2022-10-05T16:24:38.356Z,41.70
2022-10-05T16:27:12.770Z,42.58
2022-10-05T16:29:46.936Z,40.45
2022-10-05T16:32:17.198Z,43.45
2022-10-05T16:34:56.954Z,42.35
2022-10-05T16:37:32.300Z,43.57
2022-10-05T16:40:03.658Z,45.96
2022-10-05T16:42:39.106Z,46.96
2022-10-05T16:45:21.642Z,44.83
2022-10-05T16:47:54.667Z,49.92
2022-10-05T16:50:25.068Z,50.41
2022-10-05T16:52:57.972Z,46.80
2022-10-05T16:55:33.402Z,47.14
2022-10-05T16:58:02.664Z,46.59
2022-10-05T17:00:38.464Z,47.09
2022-10-05T17:03:14.387Z,48.16
2022-10-05T17:05:55.672Z,49.49
2022-10-05T17:08:36.795Z,49.54
2022-10-05T17:11:17.059Z,49.70
2022-10-05T17:14:08.110Z,48.29
2022-10-05T17:16:46.748Z,48.32
2022-10-05T17:19:24.592Z,50.54
2022-10-05T17:22:00.385Z,50.56
2022-10-05T17:24:37.432Z,49.18
2022-10-05T17:27:18.687Z,50.75
2022-10-05T17:29:49.878Z,48.97
2022-10-05T17:32:40.135Z,50.55
2022-10-05T17:35:18.736Z,50.12
2022-10-05T17:38:06.324Z,47.94
2022-10-05T17:40:37.943Z,46.28
2022-10-05T17:43:24.994Z,46.67
2022-10-05T17:45:58.059Z,48.57
2022-10-05T17:49:07.615Z,51.62
2022-10-05T17:52:16.062Z,52.75
2022-10-05T17:55:15.196Z,51.97
2022-10-05T17:57:42.938Z,52.74
2022-10-05T18:00:32.980Z,52.52
2022-10-05T18:03:00.836Z,53.79
2022-10-05T18:05:29.327Z,56.97
2022-10-05T18:08:28.948Z,60.16
2022-10-05T18:11:17.189Z,63.25
2022-10-05T18:13:49.929Z,62.95
2022-10-05T18:16:51.058Z,59.83
2022-10-05T18:19:23.228Z,63.14
2022-10-05T18:22:03.271Z,61.77
2022-10-05T18:24:55.744Z,66.57
2022-10-05T18:27:50.951Z,67.04
2022-10-05T18:30:21.645Z,62.10
2022-10-05T18:33:17.929Z,60.98
2022-10-05T18:35:53.731Z,60.44
2022-10-05T18:38:31.917Z,57.11
2022-10-05T18:41:03.194Z,57.61
2022-10-05T18:43:36.695Z,60.62
2022-10-05T18:46:21.883Z,62.92
2022-10-05T18:49:00.494Z,69.38
2022-10-05T18:51:36.503Z,75.26
2022-10-05T18:54:13.987Z,63.98
2022-10-05T18:56:45.084Z,70.56
2022-10-05T18:59:32.481Z,69.69
2022-10-05T19:02:12.092Z,83.91
2022-10-05T19:04:49.984Z,78.34
2022-10-05T19:07:28.313Z,77.62
2022-10-05T19:10:08.657Z,75.44
2022-10-05T19:12:49.064Z,80.66
2022-10-05T19:15:24.237Z,69.53
2022-10-05T19:18:04.387Z,73.62
2022-10-05T19:20:37.275Z,84.48
2022-10-05T19:23:17.837Z,76.98
2022-10-05T19:25:48.950Z,82.52
2022-10-05T19:28:24.884Z,69.79
2022-10-05T19:31:06.808Z,92.29
2022-10-05T19:33:42.862Z,77.75
2022-10-05T19:36:33.015Z,71.82
2022-10-05T19:39:08.916Z,76.14
2022-10-05T19:41:50.584Z,65.23
2022-10-05T19:44:24.319Z,82.67
2022-10-05T19:47:00.023Z,79.60
2022-10-05T19:49:42.984Z,71.23
2022-10-05T19:52:22.296Z,89.70
2022-10-05T19:55:04.604Z,88.64
2022-10-05T19:57:33.169Z,88.41
2022-10-05T20:00:01.003Z,72.72
2022-10-05T20:02:28.952Z,77.91
2022-10-05T20:05:07.325Z,67.72
2022-10-05T20:07:36.217Z,73.35
2022-10-05T20:10:26.649Z,82.74
2022-10-05T20:12:57.544Z,76.29
2022-10-05T20:15:45.307Z,74.78
2022-10-05T20:18:56.614Z,78.47
2022-10-05T20:21:38.498Z,71.45
2022-10-05T20:24:10.627Z,71.39
2022-10-05T20:26:58.344Z,76.60
2022-10-05T20:29:26.083Z,72.50
2022-10-05T20:31:53.869Z,63.62
2022-10-05T20:34:22.805Z,71.50
2022-10-05T20:36:50.922Z,72.79
2022-10-05T20:39:21.139Z,76.96
2022-10-05T20:41:50.512Z,74.14
2022-10-05T20:44:18.212Z,76.97
2022-10-05T20:46:46.636Z,72.92
2022-10-05T20:49:14.536Z,78.84
2022-10-05T20:51:42.304Z,91.68
2022-10-05T20:54:10.001Z,83.23
2022-10-05T20:56:38.012Z,81.07
2022-10-05T20:59:07.179Z,96.04
2022-10-05T21:01:34.874Z,85.40
2022-10-05T21:04:07.888Z,79.29
2022-10-05T21:06:35.681Z,85.71
2022-10-05T21:09:03.391Z,93.62
2022-10-05T21:11:31.277Z,67.39
2022-10-05T21:14:03.389Z,82.12
2022-10-05T21:16:38.227Z,84.84
2022-10-05T21:19:09.357Z,98.25
2022-10-05T21:21:37.665Z,96.41
2022-10-05T21:24:05.684Z,89.19
2022-10-05T21:26:33.957Z,83.96
2022-10-05T21:29:03.226Z,84.02
2022-10-05T21:31:31.290Z,87.07
2022-10-05T21:34:00.392Z,81.52
2022-10-05T21:36:28.342Z,80.54
2022-10-05T21:38:56.452Z,100.00
2022-10-05T21:41:24.240Z,74.82
2022-10-05T21:43:51.949Z,73.87
2022-10-05T21:46:21.879Z,88.90
2022-10-05T21:48:50.506Z,86.10
2022-10-05T21:51:20.412Z,74.82
2022-10-05T21:53:50.591Z,90.20
2022-10-05T21:56:21.877Z,82.35
2022-10-05T21:58:49.861Z,82.17
2022-10-05T22:01:22.368Z,92.24
2022-10-05T22:03:50.430Z,93.61
2022-10-05T22:06:19.492Z,80.96
2022-10-05T22:08:47.203Z,92.57
2022-10-05T22:11:16.587Z,83.52
2022-10-05T22:13:45.548Z,83.45
2022-10-05T22:16:14.112Z,81.14
2022-10-05T22:18:42.395Z,82.20
2022-10-05T22:21:12.219Z,78.84
2022-10-05T22:23:42.177Z,86.16
2022-10-05T22:26:11.586Z,84.83
2022-10-05T22:28:40.117Z,89.27
2022-10-05T22:31:09.490Z,95.57
2022-10-05T22:33:37.959Z,83.66
2022-10-05T22:36:07.053Z,76.26
2022-10-05T22:38:34.912Z,83.62
2022-10-05T22:41:04.861Z,95.59
2022-10-05T22:43:32.586Z,71.52
2022-10-05T22:46:01.066Z,77.57
2022-10-05T22:48:29.142Z,77.73
2022-10-05T22:50:57.282Z,90.88
2022-10-05T22:53:24.992Z,92.91
2022-10-05T22:55:52.729Z,89.02
2022-10-05T22:58:23.834Z,76.44
2022-10-05T23:00:58.506Z,77.24
2022-10-05T23:03:26.734Z,77.40
2022-10-05T23:05:57.805Z,89.15
2022-10-05T23:08:26.227Z,80.92
2022-10-05T23:10:54.156Z,69.48
2022-10-05T23:13:23.394Z,100.00
2022-10-05T23:15:51.127Z,96.36
2022-10-05T23:18:18.829Z,86.49
2022-10-05T23:20:46.536Z,94.28
2022-10-05T23:23:14.216Z,98.41
2022-10-05T23:25:41.963Z,100.00
2022-10-05T23:28:09.693Z,100.00
2022-10-05T23:30:38.917Z,96.62
2022-10-05T23:33:06.685Z,97.04
2022-10-05T23:35:34.397Z,98.45
2022-10-05T23:38:02.149Z,100.00
2022-10-05T23:40:29.899Z,100.00
2022-10-05T23:42:57.596Z,100.00
2022-10-05T23:45:25.273Z,100.00
2022-10-05T23:47:54.277Z,100.00
2022-10-05T23:50:24.816Z,100.00
2022-10-05T23:52:52.514Z,100.00
2022-10-05T23:55:20.193Z,100.00
2022-10-05T23:57:47.944Z,100.00
